Time;durP1;ratioP1;P1;durP2;ratioP2;P2;SDS_P1;SDS_P2;PMS_P1;PMS_P2;Temp;Humidity;BMP_temperature;BMP_pressure;BME280_temperature;BME280_humidity;BME280_pressure;Samples;Min_cycle;Max_cycle;Signal;HPM_P1;HPM_P2
2022/12/10 00:01:23;;;;;;;37.30;24.03;;;-1.70;99.90;;;-2.40;90.45;96798.91;5091783;28;20526;-71
2022/12/10 00:03:51;;;;;;;45.83;27.50;;;-1.70;99.90;;;-2.43;91.05;96808.03;5089497;28;20978;-71
2022/12/10 00:06:22;;;;;;;38.87;25.00;;;-1.80;99.90;;;-2.39;90.76;96782.06;5105916;28;20453;-70
2022/12/10 00:08:50;;;;;;;39.10;28.17;;;-1.70;99.90;;;-2.40;90.78;96783.03;5087266;28;20457;-75
2022/12/10 00:11:19;;;;;;;37.47;25.80;;;-1.70;99.90;;;-2.35;90.34;96793.97;5076878;28;20457;-72
2022/12/10 00:13:49;;;;;;;34.77;25.13;;;-1.70;99.90;;;-2.29;89.13;96780.09;5084720;28;20768;-70
2022/12/10 00:16:19;;;;;;;36.40;26.63;;;-1.70;99.90;;;-2.49;89.96;96799.91;5083006;28;20445;-70
2022/12/10 00:18:48;;;;;;;40.03;25.20;;;-1.80;99.90;;;-2.44;89.68;96795.75;5103557;28;20536;-70
2022/12/10 00:21:18;;;;;;;42.10;25.93;;;-1.80;99.90;;;-2.54;89.51;96787.16;5097210;28;20448;-71
2022/12/10 00:23:46;;;;;;;36.60;24.10;;;-1.80;99.90;;;-2.73;90.46;96804.97;5088487;28;20510;-70
2022/12/10 00:26:16;;;;;;;42.97;26.67;;;-2.00;99.90;;;-2.93;90.68;96775.34;5082933;28;20463;-72
2022/12/10 00:28:45;;;;;;;38.30;27.00;;;-2.20;99.90;;;-2.78;91.06;96786.09;5104943;28;20723;-71
2022/12/10 00:31:15;;;;;;;43.00;27.53;;;-2.20;99.90;;;-3.02;91.78;96787.72;5077706;28;20456;-71
2022/12/10 00:33:44;;;;;;;36.37;24.87;;;-2.30;99.90;;;-3.02;91.40;96777.13;5086110;28;20459;-70
2022/12/10 00:36:14;;;;;;;39.77;23.70;;;-2.40;99.90;;;-2.78;89.52;96778.19;5098450;28;20490;-70
2022/12/10 00:38:43;;;;;;;39.00;25.20;;;-2.30;99.90;;;-3.06;90.10;96774.97;5101911;28;20495;-71
2022/12/10 00:41:11;;;;;;;41.80;25.37;;;-2.40;99.90;;;-3.27;91.62;96774.38;5080000;28;20478;-72
2022/12/10 00:43:38;;;;;;;42.23;26.67;;;-2.60;99.90;;;-3.52;91.81;96744.38;5086922;28;20450;-70
2022/12/10 00:46:06;;;;;;;39.00;26.37;;;-2.60;99.90;;;-3.39;91.11;96761.63;5108985;27;20472;-71
2022/12/10 00:48:34;;;;;;;44.87;27.13;;;-2.70;99.90;;;-3.42;92.05;96787.34;5076608;28;20466;-72
2022/12/10 00:51:05;;;;;;;45.90;28.53;;;-2.70;99.90;;;-3.43;93.19;96788.31;5087340;28;20507;-71
2022/12/10 00:53:36;;;;;;;42.33;26.03;;;-2.70;99.90;;;-3.24;92.70;96790.91;5089112;28;20446;-73
2022/12/10 00:56:05;;;;;;;39.27;25.90;;;-2.60;99.90;;;-3.01;91.14;96788.50;5088282;28;20815;-71
2022/12/10 00:58:35;;;;;;;46.07;27.37;;;-2.50;99.90;;;-3.27;91.67;96784.94;5090259;28;20478;-73
2022/12/10 01:01:14;;;;;;;39.90;27.00;;;-2.60;99.90;;;-3.22;92.06;96792.41;5089316;28;20441;-72
2022/12/10 01:03:42;;;;;;;38.77;25.50;;;-2.60;99.90;;;-3.33;92.50;96790.03;5098393;28;20444;-73
2022/12/10 01:06:13;;;;;;;41.93;25.77;;;-2.70;99.90;;;-3.31;92.95;96788.06;5090098;28;20455;-71
2022/12/10 01:08:44;;;;;;;45.80;25.30;;;-2.60;99.90;;;-2.88;91.78;96799.47;5090621;28;20452;-70
2022/12/10 01:11:17;;;;;;;40.10;25.80;;;-2.40;99.90;;;-3.09;92.00;96801.72;5088361;28;20445;-73
2022/12/10 01:13:46;;;;;;;42.37;25.80;;;-2.40;99.90;;;-3.06;92.17;96801.41;5078205;28;20442;-72
2022/12/10 01:16:18;;;;;;;42.70;27.07;;;-2.40;99.90;;;-3.24;91.61;96767.97;5081982;28;20443;-74
2022/12/10 01:18:46;;;;;;;44.27;27.03;;;-2.40;99.90;;;-2.99;91.77;96807.69;5073828;28;22230;-73
2022/12/10 01:21:17;;;;;;;40.87;26.53;;;-2.40;99.90;;;-3.11;92.14;96787.81;5080505;28;20460;-72
2022/12/10 01:23:48;;;;;;;40.87;25.70;;;-2.40;99.90;;;-2.78;91.86;96811.75;5085692;28;20469;-70
2022/12/10 01:26:19;;;;;;;38.87;25.23;;;-2.20;99.90;;;-2.68;91.33;96808.97;5078879;28;20473;-74
2022/12/10 01:28:47;;;;;;;42.73;27.20;;;-2.10;99.90;;;-2.96;92.24;96815.28;5081495;28;20468;-71
2022/12/10 01:31:18;;;;;;;36.67;24.63;;;-2.20;99.90;;;-2.88;91.82;96810.03;5083483;28;20452;-72
2022/12/10 01:33:46;;;;;;;42.27;25.70;;;-2.10;99.90;;;-2.64;91.41;96829.63;5081201;28;20521;-71
2022/12/10 01:36:16;;;;;;;39.17;25.30;;;-2.10;99.90;;;-2.71;91.39;96816.22;5077829;28;20460;-71
2022/12/10 01:38:45;;;;;;;42.57;28.00;;;-2.10;99.90;;;-2.52;91.31;96829.31;5096747;28;20509;-71
2022/12/10 01:41:18;;;;;;;39.63;23.77;;;-2.00;99.90;;;-2.48;90.91;96838.59;5074184;28;20465;-72
2022/12/10 01:43:59;;;;;;;43.93;27.10;;;-1.90;99.90;;;-2.32;91.03;96829.84;5079313;28;20529;-76
2022/12/10 01:46:28;;;;;;;36.87;24.70;;;-1.90;99.90;;;-2.19;90.26;96838.16;5085305;28;20478;-72
2022/12/10 01:48:56;;;;;;;41.57;25.63;;;-1.70;99.90;;;-2.70;89.75;96732.41;5076602;28;20500;-74
2022/12/10 01:51:26;;;;;;;38.83;25.73;;;-1.60;99.90;;;-2.30;89.01;96812.84;5086120;28;20466;-74
2022/12/10 01:53:55;;;;;;;42.23;25.70;;;-1.60;99.90;;;-2.21;89.25;96848.06;5083139;28;20462;-74
2022/12/10 01:56:23;;;;;;;37.67;27.07;;;-1.60;99.90;;;-2.32;90.07;96830.69;5087074;27;20468;-76
2022/12/10 01:58:55;;;;;;;41.33;26.10;;;-1.60;99.90;;;-2.26;90.02;96844.25;5079892;28;21282;-75
2022/12/10 02:01:31;;;;;;;39.57;24.03;;;-1.70;99.90;;;-2.04;89.25;96843.63;5079263;28;20458;-73
2022/12/10 02:04:11;;;;;;;37.17;23.70;;;-1.60;99.90;;;-2.05;89.15;96820.78;5078764;28;20456;-73
2022/12/10 02:06:55;;;;;;;35.43;23.13;;;-1.40;99.90;;;-2.20;88.88;96843.59;5075086;28;20452;-73
2022/12/10 02:09:32;;;;;;;36.73;25.00;;;-1.50;99.90;;;-2.41;89.67;96831.66;5089365;28;20453;-74
2022/12/10 02:12:11;;;;;;;35.60;23.93;;;-1.60;99.90;;;-2.36;89.99;96832.00;5085573;28;20463;-74
2022/12/10 02:14:51;;;;;;;35.40;24.20;;;-1.70;99.90;;;-2.31;90.02;96848.22;5076516;28;20460;-73
2022/12/10 02:17:24;;;;;;;39.23;24.87;;;-1.70;99.90;;;-2.18;89.72;96825.75;5094777;28;20520;-72
2022/12/10 02:20:04;;;;;;;37.23;23.83;;;-1.60;99.90;;;-1.93;88.63;96854.88;5082373;28;20460;-74
2022/12/10 02:22:39;;;;;;;37.90;24.67;;;-1.50;99.90;;;-2.45;88.93;96819.75;5087623;28;20481;-72
2022/12/10 02:25:13;;;;;;;44.03;25.33;;;-1.50;99.90;;;-2.14;89.55;96856.19;5075773;28;20535;-74
2022/12/10 02:27:48;;;;;;;39.20;24.63;;;-1.60;99.90;;;-2.21;89.26;96857.81;5079977;28;20450;-74
2022/12/10 02:30:18;;;;;;;41.87;25.23;;;-1.60;99.80;;;-2.45;89.44;96849.66;5081060;28;21227;-73
2022/12/10 02:32:48;;;;;;;40.23;25.67;;;-1.60;99.50;;;-2.29;89.46;96861.28;5077274;28;20453;-74
2022/12/10 02:35:20;;;;;;;34.40;24.50;;;-1.70;99.90;;;-2.29;89.94;96853.34;5080152;28;20444;-73
2022/12/10 02:37:52;;;;;;;40.57;25.70;;;-1.70;99.90;;;-2.22;89.66;96862.28;5094371;28;20487;-74
2022/12/10 02:40:23;;;;;;;34.90;24.40;;;-1.60;99.90;;;-2.09;88.81;96843.28;5081143;28;20502;-73
2022/12/10 02:42:52;;;;;;;41.90;26.43;;;-1.60;99.90;;;-2.07;88.04;96849.22;5081132;28;20467;-76
2022/12/10 02:45:24;;;;;;;40.07;26.83;;;-1.50;99.50;;;-2.07;88.61;96849.22;5078201;28;20463;-75
2022/12/10 02:47:55;;;;;;;37.73;24.00;;;-1.50;99.50;;;-2.03;88.17;96840.00;5079911;28;20464;-74
2022/12/10 02:50:23;;;;;;;34.47;23.60;;;-1.40;98.30;;;-1.94;88.13;96853.22;5083956;28;20453;-74
2022/12/10 02:52:50;;;;;;;37.40;25.70;;;-1.40;97.90;;;-1.99;88.00;96851.06;5097333;28;20492;-72
2022/12/10 02:55:19;;;;;;;36.67;24.67;;;-1.50;97.70;;;-2.03;88.40;96849.75;5076790;28;20455;-75
2022/12/10 02:58:08;;;;;;;35.77;23.90;;;-1.50;98.60;;;-2.08;88.51;96860.81;5089923;28;20822;-72
2022/12/10 03:00:48;;;;;;;36.47;25.57;;;-1.50;99.00;;;-2.34;88.44;96800.94;5092777;28;20539;-73
2022/12/10 03:03:29;;;;;;;36.20;25.53;;;-1.50;98.80;;;-1.90;88.61;96849.25;5118302;27;20933;-72
2022/12/10 03:06:08;;;;;;;36.67;24.00;;;-1.40;99.10;;;-1.80;87.33;96854.41;5094898;28;20465;-72
2022/12/10 03:08:42;;;;;;;36.80;25.83;;;-1.30;96.20;;;-1.68;86.91;96857.53;5094942;28;20459;-72
2022/12/10 03:11:14;;;;;;;35.10;24.83;;;-1.30;95.50;;;-1.84;87.21;96853.91;5076823;28;20460;-73
2022/12/10 03:13:50;;;;;;;34.03;23.80;;;-1.20;95.30;;;-1.85;87.21;96825.75;5090575;28;20461;-73
2022/12/10 03:16:22;;;;;;;34.27;24.57;;;-1.30;95.10;;;-1.66;86.13;96831.69;5089301;28;20467;-74
2022/12/10 03:18:54;;;;;;;34.07;24.70;;;-1.20;94.90;;;-1.95;86.98;96841.81;5078203;28;20474;-74
2022/12/10 03:21:23;;;;;;;35.90;24.17;;;-1.30;93.80;;;-1.95;87.38;96843.63;5092430;28;20462;-75
2022/12/10 03:23:51;;;;;;;34.93;23.53;;;-1.40;94.70;;;-1.90;87.89;96833.34;5103243;27;20446;-73
2022/12/10 03:26:21;;;;;;;40.03;25.00;;;-1.40;96.10;;;-1.82;87.53;96836.00;5075646;28;20441;-72
2022/12/10 03:28:52;;;;;;;38.77;26.20;;;-1.40;96.40;;;-2.51;87.37;96730.44;5091295;28;20942;-73
2022/12/10 03:31:22;;;;;;;33.77;23.20;;;-1.30;96.80;;;-1.73;86.56;96840.31;5091661;28;20465;-72
2022/12/10 03:33:50;;;;;;;39.50;25.40;;;-1.20;94.80;;;-1.72;86.50;96841.97;5084198;28;20657;-72
2022/12/10 03:36:19;;;;;;;36.10;24.77;;;-1.20;94.00;;;-1.76;86.57;96831.88;5085765;28;20472;-72
2022/12/10 03:38:47;;;;;;;35.20;23.07;;;-1.10;93.90;;;-1.71;86.18;96816.31;5089635;28;20488;-73
2022/12/10 03:41:14;;;;;;;39.60;25.13;;;-1.10;94.00;;;-1.70;86.44;96817.97;5088196;28;20751;-73
2022/12/10 03:43:53;;;;;;;39.03;22.97;;;-1.20;93.90;;;-1.51;85.95;96819.44;5086547;28;20454;-73
2022/12/10 03:46:22;;;;;;;37.53;24.30;;;-1.10;94.30;;;-1.53;85.46;96817.94;5085860;28;20948;-72
2022/12/10 03:48:50;;;;;;;35.60;23.93;;;-1.10;93.50;;;-1.75;86.16;96822.94;5079662;28;20560;-71
2022/12/10 03:51:18;;;;;;;38.17;25.00;;;-1.20;93.50;;;-2.01;87.99;96822.13;5093595;28;20451;-72
2022/12/10 03:53:45;;;;;;;36.37;24.20;;;-1.30;94.10;;;-2.11;88.41;96821.44;5091215;28;20459;-72
2022/12/10 03:56:12;;;;;;;38.17;25.43;;;-1.50;95.00;;;-2.03;88.39;96824.09;5092352;28;20508;-71
2022/12/10 03:58:40;;;;;;;37.67;24.77;;;-1.50;97.10;;;-1.83;87.29;96818.47;5100509;28;20668;-73
2022/12/10 04:01:07;;;;;;;37.03;23.50;;;-1.40;97.60;;;-1.65;86.41;96814.81;5091433;28;20449;-71
2022/12/10 04:03:38;;;;;;;36.70;25.07;;;-1.30;96.10;;;-1.71;85.85;96811.00;5105750;28;20458;-72
2022/12/10 04:06:11;;;;;;;39.17;24.43;;;-1.20;94.50;;;-1.75;86.08;96810.50;5081806;28;20931;-75
2022/12/10 04:08:38;;;;;;;35.10;23.50;;;-1.30;94.50;;;-1.67;86.03;96807.03;5086722;28;20443;-72
2022/12/10 04:11:07;;;;;;;36.67;23.50;;;-1.30;94.70;;;-1.94;86.67;96795.81;5083014;28;20472;-72
2022/12/10 04:16:27;;;;;;;35.17;24.07;;;-1.40;95.40;;;-2.00;87.57;96807.88;5087829;28;20464;-72
2022/12/10 04:18:58;;;;;;;36.03;24.47;;;-1.50;95.30;;;-1.99;87.91;96814.00;5086122;28;20472;-72
2022/12/10 04:26:58;;;;;;;38.57;25.10;;;-1.50;98.00;;;-1.93;88.17;96823.09;5107338;27;21168;-73
2022/12/10 04:29:29;;;;;;;34.10;23.70;;;-1.50;97.90;;;-2.17;89.34;96816.81;5080998;28;20933;-74
2022/12/10 04:31:58;;;;;;;37.83;25.83;;;-1.60;97.50;;;-2.03;88.81;96810.88;5084876;28;20490;-73
2022/12/10 04:34:27;;;;;;;39.23;25.87;;;-1.50;99.90;;;-1.98;88.47;96814.84;5089672;28;20523;-72
2022/12/10 04:36:54;;;;;;;36.80;25.00;;;-1.50;99.20;;;-1.94;87.48;96784.38;5089738;28;20458;-71
2022/12/10 04:39:22;;;;;;;40.73;24.70;;;-1.40;99.10;;;-1.81;87.15;96813.84;5083953;28;20924;-72
2022/12/10 04:41:51;;;;;;;38.30;24.93;;;-1.40;97.60;;;-1.95;88.14;96819.78;5095538;28;21338;-72
2022/12/10 04:44:20;;;;;;;39.97;26.43;;;-1.50;97.30;;;-1.96;88.49;96812.84;5085182;28;20457;-72
2022/12/10 04:46:48;;;;;;;39.90;25.53;;;-1.50;98.20;;;-2.06;88.35;96797.13;5094504;28;20447;-72
2022/12/10 04:49:16;;;;;;;35.80;24.17;;;-1.40;97.40;;;-2.21;87.60;96762.53;5081846;28;20513;-71
2022/12/10 04:51:46;;;;;;;34.03;23.30;;;-1.40;96.50;;;-1.91;87.38;96816.66;5102075;28;20464;-73
2022/12/10 04:54:14;;;;;;;39.20;26.10;;;-1.40;95.50;;;-2.01;88.00;96815.97;5085686;28;20797;-72
2022/12/10 04:56:42;;;;;;;38.27;24.23;;;-1.50;96.10;;;-2.00;88.22;96812.34;5079850;28;20447;-72
2022/12/10 04:59:10;;;;;;;35.37;24.50;;;-1.50;96.90;;;-2.07;88.15;96811.38;5094474;28;20956;-72
2022/12/10 05:01:38;;;;;;;36.90;26.03;;;-1.50;97.80;;;-2.05;88.03;96782.91;5104537;28;20440;-73
2022/12/10 05:04:08;;;;;;;37.70;25.40;;;-1.40;97.60;;;-1.93;88.07;96808.06;5105758;28;20471;-72
2022/12/10 05:06:35;;;;;;;40.53;25.20;;;-1.50;97.50;;;-2.06;87.95;96797.94;5105026;28;20459;-73
2022/12/10 05:09:05;;;;;;;32.67;23.80;;;-1.50;97.90;;;-2.37;87.89;96753.59;5088192;28;20449;-72
2022/12/10 05:11:34;;;;;;;34.37;23.90;;;-1.50;96.70;;;-2.09;88.51;96800.13;5090493;28;20449;-73
2022/12/10 05:14:02;;;;;;;34.70;24.93;;;-1.60;97.50;;;-2.06;88.47;96813.00;5067271;28;20441;-73
2022/12/10 05:16:34;;;;;;;38.73;25.37;;;-1.60;98.90;;;-1.96;88.25;96808.38;5070281;28;20922;-73
2022/12/10 05:19:02;;;;;;;31.13;22.67;;;-1.50;99.90;;;-2.00;88.32;96813.19;5085608;28;20465;-73
2022/12/10 05:23:27;;;;;;;34.00;24.13;;;-1.50;98.60;;;-1.93;87.90;96820.44;5088330;28;20478;-72
2022/12/10 05:24:25;;;;;;;35.33;23.00;;;-1.50;98.90;;;-2.04;87.88;96816.31;5084500;28;20918;-72
2022/12/10 05:26:52;;;;;;;37.30;25.10;;;-1.50;98.40;;;-1.95;88.24;96819.78;5089436;28;20469;-71
2022/12/10 05:29:20;;;;;;;37.47;24.13;;;-1.50;99.10;;;-1.83;87.53;96818.47;5087696;28;20450;-71
2022/12/10 05:31:47;;;;;;;37.77;24.20;;;-1.40;98.10;;;-1.80;87.66;96817.31;5105073;28;20459;-72
2022/12/10 05:34:14;;;;;;;34.13;22.87;;;-1.40;96.80;;;-1.91;87.15;96818.47;5102774;28;20468;-73
2022/12/10 05:36:42;;;;;;;34.83;22.90;;;-1.40;96.20;;;-1.93;87.96;96836.34;5079526;28;20462;-73
2022/12/10 05:39:11;;;;;;;35.50;22.43;;;-1.50;96.90;;;-1.97;87.25;96808.53;5076518;28;20516;-76
2022/12/10 05:41:41;;;;;;;36.50;25.10;;;-1.40;97.70;;;-1.85;88.08;96834.50;5070310;28;20555;-74
2022/12/10 05:44:10;;;;;;;37.20;25.80;;;-1.40;97.50;;;-1.82;87.54;96832.53;5071791;28;20738;-73
2022/12/10 05:46:37;;;;;;;38.17;25.53;;;-1.40;97.50;;;-2.24;88.34;96832.53;5072214;28;20472;-74
2022/12/10 05:49:07;;;;;;;37.20;25.27;;;-1.50;96.70;;;-2.08;88.74;96841.47;5105904;28;20441;-74
2022/12/10 05:51:36;;;;;;;37.83;24.57;;;-1.50;97.70;;;-2.77;89.32;96768.44;5077244;28;20516;-72
2022/12/10 05:54:08;;;;;;;40.80;25.77;;;-1.60;97.40;;;-2.32;89.76;96848.38;5083446;28;20464;-73
2022/12/10 05:56:36;;;;;;;36.00;24.33;;;-1.70;97.90;;;-2.23;89.47;96849.22;5080146;28;21046;-72
2022/12/10 05:59:06;;;;;;;36.07;23.70;;;-1.70;99.00;;;-2.20;89.36;96840.94;5088017;28;20480;-74
2022/12/10 06:01:35;;;;;;;34.97;24.60;;;-1.70;99.90;;;-2.23;89.13;96850.06;5089741;28;20442;-72
2022/12/10 06:04:06;;;;;;;37.93;24.40;;;-1.70;99.50;;;-2.26;88.86;96845.09;5088320;28;20461;-72
2022/12/10 06:06:36;;;;;;;36.67;24.90;;;-1.70;99.90;;;-2.33;89.39;96844.91;5085762;28;20456;-72
2022/12/10 06:09:05;;;;;;;40.63;26.13;;;-1.70;99.90;;;-2.05;89.22;96860.47;5113416;27;20448;-73
2022/12/10 06:11:33;;;;;;;41.03;24.97;;;-1.60;99.90;;;-2.32;89.50;96864.25;5074244;28;20485;-73
2022/12/10 06:14:01;;;;;;;40.80;27.70;;;-1.60;99.90;;;-2.45;90.25;96864.72;5085389;28;20481;-74
2022/12/10 06:16:30;;;;;;;42.83;26.80;;;-1.70;99.90;;;-2.36;89.42;96857.63;5067619;28;20501;-72
2022/12/10 06:18:58;;;;;;;37.00;25.30;;;-1.70;99.90;;;-2.41;89.85;96868.69;5092374;28;20937;-72
2022/12/10 06:21:25;;;;;;;35.57;24.30;;;-1.70;99.90;;;-2.43;89.57;96866.22;5092446;28;20443;-72
2022/12/10 06:23:56;;;;;;;34.70;24.67;;;-1.70;99.90;;;-2.41;89.15;96868.69;5107828;27;20465;-74
2022/12/10 06:26:26;;;;;;;39.90;24.20;;;-1.80;99.90;;;-2.64;89.52;96856.09;5078477;28;20672;-72
2022/12/10 06:28:54;;;;;;;38.10;25.87;;;-1.80;99.30;;;-2.67;90.67;96864.31;5085262;28;20450;-72
2022/12/10 06:31:23;;;;;;;36.20;25.33;;;-1.90;99.40;;;-2.71;90.73;96858.53;5072492;28;20461;-72
2022/12/10 06:33:52;;;;;;;46.13;26.90;;;-2.00;99.90;;;-2.73;91.22;96859.69;5068697;28;20472;-73
2022/12/10 06:36:20;;;;;;;44.43;27.60;;;-2.00;99.90;;;-2.60;90.56;96865.34;5079591;28;20444;-72
2022/12/10 06:38:48;;;;;;;42.00;25.43;;;-2.00;99.90;;;-2.65;90.67;96856.22;5074671;28;20478;-74
2022/12/10 06:41:20;;;;;;;39.97;24.67;;;-2.00;99.90;;;-2.71;91.01;96869.13;5078954;28;20464;-72
2022/12/10 06:43:47;;;;;;;41.30;25.83;;;-2.00;99.90;;;-2.52;90.03;96864.53;5075949;28;20473;-71
2022/12/10 06:46:19;;;;;;;35.97;24.70;;;-2.00;99.90;;;-2.59;89.27;96871.44;5077131;28;20465;-72
2022/12/10 06:48:46;;;;;;;38.67;26.07;;;-1.90;99.90;;;-2.66;89.81;96889.75;5081147;28;20460;-73
2022/12/10 06:51:17;;;;;;;36.23;25.40;;;-2.00;99.90;;;-2.66;89.39;96881.84;5094928;28;20444;-72
2022/12/10 06:53:47;;;;;;;36.93;23.97;;;-2.00;99.90;;;-2.66;89.44;96884.47;5090525;28;20849;-70
2022/12/10 06:56:17;;;;;;;35.50;24.30;;;-1.90;99.00;;;-2.57;89.20;96872.13;5080083;28;20518;-74
2022/12/10 06:58:46;;;;;;;39.17;25.97;;;-2.00;99.90;;;-2.64;88.96;96894.91;5074616;28;20523;-71
2022/12/10 07:01:15;;;;;;;41.83;24.80;;;-1.90;98.50;;;-2.50;88.92;96890.81;5071049;28;20454;-70
2022/12/10 07:03:43;;;;;;;31.83;24.50;;;-2.00;99.20;;;-2.60;89.22;96890.94;5074587;28;20551;-74
2022/12/10 07:06:15;;;;;;;37.90;23.70;;;-2.00;98.50;;;-2.74;89.56;96884.47;5077100;28;20453;-74
2022/12/10 07:08:42;;;;;;;39.00;25.27;;;-2.00;98.40;;;-2.52;88.99;96901.56;5075716;28;21027;-73
2022/12/10 07:11:13;;;;;;;42.37;25.83;;;-2.00;99.90;;;-2.88;89.57;96868.22;5074148;28;20474;-73
2022/12/10 07:13:40;;;;;;;39.20;25.17;;;-2.00;98.50;;;-2.49;89.11;96892.50;5082765;28;20534;-71
2022/12/10 07:16:14;;;;;;;53.80;30.83;;;-2.00;99.40;;;-2.49;88.30;96877.44;5075537;28;20465;-69
2022/12/10 07:18:41;;;;;;;68.57;34.40;;;-1.90;99.40;;;-2.47;88.23;96895.81;5075649;28;20888;-69
2022/12/10 07:21:16;;;;;;;50.73;29.27;;;-1.90;98.50;;;-2.24;87.27;96892.56;5071750;28;20457;-69
2022/12/10 07:23:43;;;;;;;46.17;28.73;;;-1.70;97.20;;;-2.24;86.88;96892.56;5072003;28;20448;-69
2022/12/10 07:26:10;;;;;;;45.37;26.40;;;-1.70;95.30;;;-2.42;87.58;96894.34;5070215;28;20445;-69
2022/12/10 07:28:38;;;;;;;39.30;26.43;;;-1.70;94.10;;;-2.45;86.79;96889.34;5085134;28;20997;-69
2022/12/10 07:31:08;;;;;;;40.93;24.73;;;-1.80;94.00;;;-2.29;87.00;96893.88;5076203;28;20490;-69
2022/12/10 07:33:35;;;;;;;36.03;24.07;;;-1.70;94.20;;;-2.17;86.29;96890.94;5072065;28;20460;-68
2022/12/10 07:36:05;;;;;;;42.37;25.23;;;-1.60;94.20;;;-2.14;85.56;96895.88;5069873;28;20441;-68
2022/12/10 07:38:34;;;;;;;39.00;24.30;;;-1.50;92.50;;;-2.23;85.85;96903.00;5075359;28;20445;-69
2022/12/10 07:41:05;;;;;;;41.13;25.33;;;-1.60;92.20;;;-2.36;85.95;96887.56;5072646;28;20466;-68
2022/12/10 07:43:34;;;;;;;45.63;25.93;;;-1.60;92.10;;;-2.25;86.64;96904.13;5089323;27;20447;-73
2022/12/10 07:46:05;;;;;;;43.23;25.17;;;-1.60;92.40;;;-2.24;86.21;96901.31;5075696;28;20452;-68
2022/12/10 07:48:34;;;;;;;37.43;22.93;;;-1.60;92.40;;;-2.10;86.17;96912.28;5073581;28;20546;-68
2022/12/10 07:51:01;;;;;;;35.37;24.13;;;-1.60;92.70;;;-2.07;86.01;96912.75;5090215;28;21060;-84
2022/12/10 07:53:28;;;;;;;37.53;25.97;;;-1.50;92.80;;;-2.30;86.28;96918.69;5070281;28;20536;-67
2022/12/10 07:55:57;;;;;;;39.40;24.90;;;-1.50;92.10;;;-2.26;86.01;96923.63;5088986;28;20479;-69
2022/12/10 07:58:25;;;;;;;36.03;24.27;;;-1.60;92.10;;;-2.26;86.27;96919.19;5084742;28;20459;-69
2022/12/10 08:00:52;;;;;;;34.00;22.70;;;-1.60;92.00;;;-2.10;85.55;96928.97;5099715;28;20475;-70
2022/12/10 08:03:19;;;;;;;38.67;24.03;;;-1.50;92.40;;;-2.06;85.29;96935.59;5078637;28;20516;-69
2022/12/10 08:05:48;;;;;;;37.53;23.40;;;-1.50;91.70;;;-2.10;85.59;96934.28;5074908;28;20460;-71
2022/12/10 08:08:15;;;;;;;37.13;24.10;;;-1.50;91.90;;;-1.96;85.44;96937.28;5066465;28;20507;-67
2022/12/10 08:10:42;;;;;;;37.03;24.17;;;-1.40;92.10;;;-2.16;86.25;96930.44;5074237;28;20454;-70
2022/12/10 08:13:11;;;;;;;33.10;23.13;;;-1.50;91.90;;;-2.42;85.43;96867.88;5092176;28;21092;-69
2022/12/10 08:15:38;;;;;;;36.57;23.80;;;-1.40;92.30;;;-1.86;85.00;96940.63;5074242;28;20462;-68
2022/12/10 08:18:05;;;;;;;35.53;22.53;;;-1.30;92.40;;;-1.81;84.54;96940.94;5077602;28;20465;-69
2022/12/10 08:20:32;;;;;;;38.00;23.43;;;-1.30;92.20;;;-1.78;85.65;96953.84;5075598;28;20468;-70
2022/12/10 08:22:59;;;;;;;35.80;24.70;;;-1.30;92.20;;;-1.44;86.42;96950.25;5078018;28;20461;-69
2022/12/10 08:25:26;;;;;;;41.30;24.00;;;-1.00;95.50;;;-1.29;85.84;96954.88;5083877;28;21034;-71
2022/12/10 08:27:53;;;;;;;38.93;24.40;;;-0.90;94.50;;;-1.12;85.63;96944.28;5080971;28;20449;-70
2022/12/10 08:30:22;;;;;;;40.30;26.57;;;-0.80;94.00;;;-1.15;83.59;96958.69;5079999;28;20482;-70
2022/12/10 08:32:49;;;;;;;38.40;25.80;;;-0.70;91.30;;;-0.97;82.07;96961.16;5088364;28;20468;-69
2022/12/10 08:35:17;;;;;;;39.30;23.90;;;-0.50;89.40;;;-1.31;83.01;96951.56;5083279;28;20450;-70
2022/12/10 08:37:44;;;;;;;38.20;26.57;;;-0.70;87.80;;;-1.17;81.80;96956.19;5082539;28;20954;-70
2022/12/10 08:40:12;;;;;;;36.00;24.03;;;-0.60;87.50;;;-1.23;82.47;96951.56;5085058;28;20468;-74
2022/12/10 08:42:39;;;;;;;34.20;24.17;;;-0.60;87.30;;;-1.38;82.29;96945.28;5088660;28;20461;-73
2022/12/10 08:45:07;;;;;;;34.40;23.10;;;-0.60;86.50;;;-1.24;82.38;96951.72;5082977;28;20457;-69
2022/12/10 08:47:36;;;;;;;38.00;26.33;;;-0.60;87.00;;;-1.00;81.19;96951.72;5089942;28;20457;-70
2022/12/10 08:50:04;;;;;;;34.63;23.70;;;-0.60;87.20;;;-0.92;80.45;96942.91;5091190;28;20449;-69
2022/12/10 08:52:31;;;;;;;39.27;25.37;;;-0.50;85.70;;;-1.25;80.51;96936.81;5094724;28;20452;-70
2022/12/10 08:54:58;;;;;;;34.93;23.60;;;-0.50;84.50;;;-1.07;81.24;96955.22;5079381;28;20462;-68
2022/12/10 08:57:25;;;;;;;38.10;25.23;;;-0.50;85.60;;;-1.13;81.64;96963.84;5115569;27;20449;-72
2022/12/10 08:59:52;;;;;;;34.80;24.37;;;-0.50;85.90;;;-1.05;80.66;96950.56;5078140;28;20519;-68
2022/12/10 09:02:20;;;;;;;34.90;24.03;;;-0.50;84.80;;;-1.15;81.05;96950.75;5081829;28;20930;-75
2022/12/10 09:04:49;;;;;;;36.70;25.37;;;-0.60;84.20;;;-1.27;81.00;96960.88;5077709;28;20518;-69
2022/12/10 09:07:18;;;;;;;35.50;23.83;;;-0.70;84.70;;;-2.19;82.69;96869.91;5074868;28;20447;-73
2022/12/10 09:09:45;;;;;;;33.93;22.63;;;-0.80;86.20;;;-1.66;84.13;96935.00;5062001;28;20442;-69
2022/12/10 09:12:12;;;;;;;34.77;23.60;;;-0.90;88.00;;;-1.48;83.50;96938.31;5071039;28;20456;-69
2022/12/10 09:14:41;;;;;;;37.53;25.37;;;-0.70;87.80;;;-1.12;82.52;96936.34;5079962;28;20446;-69
2022/12/10 09:17:09;;;;;;;41.00;25.77;;;-0.60;88.40;;;-1.05;81.66;96927.53;5076493;28;20457;-75
2022/12/10 09:19:37;;;;;;;33.70;22.17;;;-0.50;87.10;;;-0.73;81.43;96930.28;5089815;28;20483;-73
2022/12/10 09:22:05;;;;;;;40.03;25.03;;;-0.30;87.00;;;-1.10;81.54;96929.84;5075182;28;20514;-71
2022/12/10 09:24:32;;;;;;;38.47;22.97;;;-0.40;84.80;;;-1.08;82.56;96932.34;5072276;28;20455;-72
2022/12/10 09:27:01;;;;;;;36.53;25.07;;;-0.40;86.00;;;-0.83;81.82;96926.97;5082576;28;20464;-72
2022/12/10 09:29:28;;;;;;;32.77;23.03;;;-0.40;86.70;;;-0.63;80.51;96933.56;5098980;28;20452;-73
2022/12/10 09:31:56;;;;;;;41.93;25.30;;;-0.20;86.40;;;-0.70;80.15;96914.00;5086708;28;20520;-70
2022/12/10 09:34:23;;;;;;;38.17;25.87;;;-0.10;86.20;;;-0.25;78.16;96921.47;5075124;28;20469;-68
2022/12/10 09:36:50;;;;;;;35.33;24.43;;;0.10;83.10;;;-0.31;78.39;96918.50;5092252;28;20463;-73
2022/12/10 09:39:19;;;;;;;35.63;24.77;;;0.20;82.50;;;-0.34;78.76;96913.53;5073477;28;20578;-73
2022/12/10 09:42:16;;;;;;;35.80;22.43;;;0.20;82.20;;;-0.30;78.10;96917.50;5074361;28;20475;-70
2022/12/10 09:44:54;;;;;;;39.40;22.83;;;0.20;81.90;;;-0.10;79.15;96917.06;5082168;28;20458;-74
2022/12/10 09:47:31;;;;;;;30.90;22.17;;;0.30;83.10;;;-0.21;78.02;96920.13;5123962;27;20749;-71
2022/12/10 09:50:11;;;;;;;37.83;25.30;;;0.30;82.00;;;-0.72;79.25;96877.06;5078275;28;20467;-71
2022/12/10 09:52:43;;;;;;;32.17;23.27;;;0.30;81.90;;;-0.32;79.04;96918.66;5067227;28;20461;-76
2022/12/10 09:55:17;;;;;;;36.63;25.50;;;0.30;82.80;;;0.06;77.94;96928.59;5074603;28;20456;-71
2022/12/10 09:57:47;;;;;;;32.00;22.47;;;0.50;82.50;;;0.11;77.54;96931.56;5078900;28;20452;-72
2022/12/10 10:00:23;;;;;;;30.27;22.23;;;0.50;81.50;;;0.04;78.12;96939.41;5080146;28;20488;-71
2022/12/10 10:02:52;;;;;;;34.40;23.13;;;0.60;81.50;;;-0.04;78.82;96936.78;5080029;28;20456;-71
2022/12/10 10:05:25;;;;;;;34.87;22.37;;;0.50;82.10;;;-0.07;78.61;96940.63;5076232;28;20476;-69
2022/12/10 10:07:56;;;;;;;33.73;23.50;;;0.40;81.80;;;0.08;78.12;96931.91;5077823;28;20961;-74
2022/12/10 10:10:29;;;;;;;37.03;24.60;;;0.50;82.20;;;0.34;78.18;96942.22;5071278;28;20457;-72
2022/12/10 10:13:01;;;;;;;35.27;24.00;;;0.60;82.50;;;0.71;77.42;96942.44;5087513;28;20458;-75
2022/12/10 10:15:33;;;;;;;38.87;24.10;;;0.90;82.10;;;1.01;75.96;96947.81;5086897;28;20978;-75
2022/12/10 10:18:09;;;;;;;31.37;23.17;;;1.30;80.80;;;1.06;74.63;96945.44;5084109;28;20463;-71
2022/12/10 10:20:37;;;;;;;34.87;24.90;;;1.50;79.50;;;1.20;74.70;96945.63;5075208;28;20474;-78
2022/12/10 10:23:05;;;;;;;33.63;23.33;;;1.60;79.00;;;1.17;74.47;96954.00;5078376;28;20677;-70
2022/12/10 10:25:33;;;;;;;33.83;25.10;;;1.70;78.80;;;0.74;74.61;96955.38;5075480;28;20447;-69
2022/12/10 10:28:01;;;;;;;31.77;23.20;;;1.50;78.00;;;1.05;75.63;96949.09;5084540;28;20454;-69